Time;durP1;ratioP1;P1;durP2;ratioP2;P2;SDS_P1;SDS_P2;PMS_P1;PMS_P2;Temp;Humidity;BMP_temperature;BMP_pressure;BME280_temperature;BME280_humidity;BME280_pressure;Samples;Min_cycle;Max_cycle;Signal;HPM_P1;HPM_P2
2023/04/23 00:01:38;;;;;;;12.50;10.55;;;14.10;90.90;;;;;;6156579;23;20029;-71
2023/04/23 00:04:05;;;;;;;13.48;10.63;;;14.10;90.80;;;;;;6129963;23;20001;-71
2023/04/23 00:06:32;;;;;;;14.07;10.55;;;14.10;91.10;;;;;;6156373;23;20036;-72
2023/04/23 00:09:00;;;;;;;18.63;11.43;;;14.10;91.00;;;;;;6156126;23;20008;-71
2023/04/23 00:11:26;;;;;;;17.35;12.40;;;14.10;91.20;;;;;;6155970;23;20006;-72
2023/04/23 00:13:52;;;;;;;16.73;13.40;;;14.20;91.10;;;;;;6156118;23;20009;-72
2023/04/23 00:16:19;;;;;;;19.58;14.82;;;14.10;90.90;;;;;;6130415;23;20397;-72
2023/04/23 00:18:46;;;;;;;13.73;11.65;;;14.10;91.00;;;;;;6156326;23;20009;-71
2023/04/23 00:21:12;;;;;;;19.60;11.50;;;14.00;91.10;;;;;;6156224;23;20012;-72
2023/04/23 00:23:39;;;;;;;14.55;12.00;;;14.00;91.10;;;;;;6156136;23;20002;-72
2023/04/23 00:26:05;;;;;;;18.33;12.77;;;13.90;91.00;;;;;;6156194;23;19998;-71
2023/04/23 00:28:30;;;;;;;20.55;15.65;;;13.90;91.30;;;;;;6156385;23;20081;-72
2023/04/23 00:30:56;;;;;;;22.17;16.38;;;13.90;91.30;;;;;;6156283;23;20331;-72
2023/04/23 00:33:22;;;;;;;13.45;10.75;;;13.90;91.30;;;;;;6156022;23;20028;-71
2023/04/23 00:35:48;;;;;;;13.73;10.45;;;13.80;91.30;;;;;;6155997;23;19997;-72
2023/04/23 00:38:14;;;;;;;10.68;9.48;;;13.80;91.40;;;;;;6156467;23;20016;-72
2023/04/23 00:40:39;;;;;;;13.95;9.07;;;13.80;91.20;;;;;;6156287;23;20088;-72
2023/04/23 00:43:06;;;;;;;10.32;8.57;;;13.80;91.20;;;;;;6155802;23;20008;-71
2023/04/23 00:45:32;;;;;;;11.15;8.73;;;13.80;91.20;;;;;;6129359;23;20006;-71
2023/04/23 00:47:58;;;;;;;10.70;9.13;;;13.70;91.10;;;;;;6155724;23;20480;-71
2023/04/23 00:50:24;;;;;;;11.98;8.77;;;13.70;91.20;;;;;;6155618;23;20017;-72
2023/04/23 00:52:50;;;;;;;12.48;8.25;;;13.70;91.20;;;;;;6156298;23;20066;-71
2023/04/23 00:55:19;;;;;;;11.07;8.65;;;13.70;91.20;;;;;;6156003;23;20343;-71
2023/04/23 00:57:45;;;;;;;11.32;8.57;;;13.70;91.30;;;;;;6154359;23;20382;-71
2023/04/23 01:00:12;;;;;;;12.73;8.88;;;13.60;91.30;;;;;;6152515;23;20104;-72
2023/04/23 01:02:41;;;;;;;13.93;9.93;;;13.60;91.20;;;;;;6152618;23;19997;-71
2023/04/23 01:05:09;;;;;;;12.95;10.13;;;13.60;91.40;;;;;;6154159;23;20008;-72
2023/04/23 01:07:36;;;;;;;12.93;9.63;;;13.60;91.60;;;;;;6129373;23;20506;-71
2023/04/23 01:10:03;;;;;;;11.20;9.15;;;13.60;91.70;;;;;;6155175;23;20064;-72
2023/04/23 01:12:30;;;;;;;13.38;8.95;;;13.50;91.80;;;;;;6155695;23;20084;-72
2023/04/23 01:14:56;;;;;;;11.88;9.45;;;13.50;91.90;;;;;;6155409;23;20037;-72
2023/04/23 01:17:22;;;;;;;12.68;8.88;;;13.50;92.00;;;;;;6155105;23;20005;-71
2023/04/23 01:19:47;;;;;;;11.52;9.38;;;13.50;92.20;;;;;;6155021;23;20013;-72
2023/04/23 01:22:15;;;;;;;11.25;9.65;;;13.50;92.10;;;;;;6154932;23;20001;-71
2023/04/23 01:24:41;;;;;;;11.73;9.48;;;13.50;92.10;;;;;;6155264;23;20011;-72
2023/04/23 01:27:08;;;;;;;11.43;8.77;;;13.50;92.20;;;;;;6155225;23;20006;-72
2023/04/23 01:29:34;;;;;;;10.30;9.00;;;13.50;92.10;;;;;;6155052;23;20012;-72
2023/04/23 01:32:01;;;;;;;9.88;8.85;;;13.50;92.30;;;;;;6155504;23;20371;-72
2023/04/23 01:34:31;;;;;;;10.63;8.93;;;13.50;92.00;;;;;;6155083;23;20017;-72
2023/04/23 01:36:58;;;;;;;12.38;9.05;;;13.50;92.00;;;;;;6155471;23;20024;-72
2023/04/23 01:39:24;;;;;;;13.20;8.40;;;13.50;92.00;;;;;;6155461;23;20510;-71
2023/04/23 01:41:50;;;;;;;11.20;8.60;;;13.50;91.90;;;;;;6155029;23;19993;-72
2023/04/23 01:44:16;;;;;;;11.63;8.80;;;13.50;91.90;;;;;;6154878;23;20033;-71
2023/04/23 01:46:42;;;;;;;10.95;8.90;;;13.50;91.70;;;;;;6155394;23;20013;-72
2023/04/23 01:49:07;;;;;;;13.43;10.38;;;13.50;91.50;;;;;;6155399;23;20375;-71
2023/04/23 01:51:34;;;;;;;19.13;10.80;;;13.40;91.40;;;;;;6155116;23;20037;-71
2023/04/23 01:54:00;;;;;;;14.98;10.10;;;13.40;91.40;;;;;;6155667;23;20309;-72
2023/04/23 01:56:27;;;;;;;14.18;10.73;;;13.30;91.30;;;;;;6155284;23;19998;-72
2023/04/23 01:58:53;;;;;;;15.52;10.77;;;13.30;91.30;;;;;;6155358;23;20021;-72
2023/04/23 02:01:19;;;;;;;13.13;10.38;;;13.20;91.20;;;;;;6155382;23;20436;-71
2023/04/23 02:03:45;;;;;;;15.27;11.25;;;13.20;91.30;;;;;;6155244;23;20065;-71
2023/04/23 02:06:11;;;;;;;15.50;11.20;;;13.10;91.30;;;;;;6155442;23;20080;-72
2023/04/23 02:08:38;;;;;;;15.73;11.07;;;13.10;91.50;;;;;;6155232;23;20002;-71
2023/04/23 02:11:07;;;;;;;15.50;11.23;;;13.00;91.70;;;;;;6155398;23;20001;-71
2023/04/23 02:13:33;;;;;;;19.67;12.40;;;13.00;91.70;;;;;;6128979;23;20463;-71
2023/04/23 02:15:59;;;;;;;16.50;11.65;;;13.00;91.80;;;;;;6155271;23;20435;-71
2023/04/23 02:18:25;;;;;;;17.45;11.48;;;12.90;91.80;;;;;;6155204;23;20012;-72
2023/04/23 02:20:50;;;;;;;15.00;10.10;;;12.90;92.00;;;;;;6156050;23;20076;-72
2023/04/23 02:23:16;;;;;;;13.38;9.60;;;12.90;92.20;;;;;;6157186;23;20005;-71
2023/04/23 02:25:42;;;;;;;16.38;10.05;;;12.80;92.30;;;;;;6157007;23;20006;-71
2023/04/23 02:28:10;;;;;;;11.10;9.27;;;12.80;92.60;;;;;;6157100;23;20100;-72
2023/04/23 02:30:36;;;;;;;13.07;9.48;;;12.80;92.60;;;;;;6157686;23;20088;-72
2023/04/23 02:33:02;;;;;;;13.70;9.52;;;12.80;92.60;;;;;;6157307;23;20010;-71
2023/04/23 02:35:28;;;;;;;13.18;8.48;;;12.90;92.60;;;;;;6156927;23;20010;-71
2023/04/23 02:37:54;;;;;;;13.93;8.60;;;12.90;92.60;;;;;;6157137;23;20057;-71
2023/04/23 02:40:21;;;;;;;9.20;8.18;;;12.90;92.60;;;;;;6156878;23;20063;-71
2023/04/23 02:42:48;;;;;;;13.10;8.57;;;12.90;92.60;;;;;;6156906;23;20434;-71
2023/04/23 02:45:13;;;;;;;11.77;8.50;;;12.90;92.60;;;;;;6156930;23;20328;-71
2023/04/23 02:47:39;;;;;;;9.52;7.82;;;12.90;92.40;;;;;;6130719;23;20016;-71
2023/04/23 02:50:06;;;;;;;11.75;8.68;;;12.80;92.60;;;;;;6130733;23;20056;-72
2023/04/23 02:52:32;;;;;;;10.43;8.00;;;12.80;92.50;;;;;;6156779;23;20519;-71
2023/04/23 02:55:00;;;;;;;11.93;9.23;;;12.80;92.60;;;;;;6156598;23;20060;-71
2023/04/23 02:57:27;;;;;;;10.38;8.60;;;12.90;92.90;;;;;;6156607;23;20467;-71
2023/04/23 02:59:53;;;;;;;12.73;8.52;;;12.90;93.10;;;;;;6156987;23;20048;-71
2023/04/23 03:02:19;;;;;;;9.73;8.60;;;12.90;93.00;;;;;;6156709;23;20431;-71
2023/04/23 03:04:45;;;;;;;11.02;8.15;;;13.00;93.20;;;;;;6156625;23;20128;-71
2023/04/23 03:07:12;;;;;;;9.90;8.25;;;13.00;93.40;;;;;;6157151;23;20013;-71
2023/04/23 03:09:38;;;;;;;10.90;8.40;;;13.00;93.30;;;;;;6157011;23;20009;-71
2023/04/23 03:12:04;;;;;;;13.45;8.98;;;13.00;93.40;;;;;;6156385;23;20009;-71
2023/04/23 03:14:30;;;;;;;10.85;7.80;;;13.00;93.40;;;;;;6156513;23;20013;-71
2023/04/23 03:16:55;;;;;;;11.27;8.93;;;13.00;93.50;;;;;;6156485;23;20447;-71
2023/04/23 03:19:21;;;;;;;9.02;7.80;;;13.00;93.50;;;;;;6156563;23;19998;-71
2023/04/23 03:21:47;;;;;;;11.15;8.43;;;13.00;93.50;;;;;;6156671;23;20024;-71
2023/04/23 03:24:16;;;;;;;9.80;8.57;;;13.00;93.40;;;;;;6156718;23;20001;-71
2023/04/23 03:26:41;;;;;;;11.27;7.55;;;13.00;93.40;;;;;;6130165;23;20047;-71
2023/04/23 03:29:07;;;;;;;10.25;7.82;;;13.00;93.30;;;;;;6156500;23;19998;-72
2023/04/23 03:31:33;;;;;;;12.02;7.80;;;13.00;93.30;;;;;;6156156;23;20005;-72
2023/04/23 03:33:59;;;;;;;9.88;7.63;;;13.00;93.10;;;;;;6156375;23;20053;-72
2023/04/23 03:36:24;;;;;;;8.98;7.63;;;13.00;93.20;;;;;;6156201;23;20004;-72
2023/04/23 03:38:50;;;;;;;10.13;7.32;;;13.00;93.20;;;;;;6156182;23;20037;-71
2023/04/23 03:41:16;;;;;;;11.55;8.48;;;13.00;93.10;;;;;;6156394;23;20029;-71
2023/04/23 03:43:42;;;;;;;10.23;7.95;;;13.00;93.10;;;;;;6156425;23;20005;-71
2023/04/23 03:46:08;;;;;;;9.27;7.35;;;13.00;93.10;;;;;;6156778;23;20002;-71
2023/04/23 03:48:33;;;;;;;8.95;7.50;;;12.90;93.10;;;;;;6156167;23;20037;-71
2023/04/23 03:50:59;;;;;;;11.43;7.95;;;12.90;92.90;;;;;;6156345;23;20017;-71
2023/04/23 03:53:25;;;;;;;8.38;7.57;;;12.80;92.90;;;;;;6156337;23;20332;-71
2023/04/23 03:55:50;;;;;;;10.15;7.55;;;12.80;93.10;;;;;;6156360;23;20002;-71
2023/04/23 03:58:16;;;;;;;11.32;7.47;;;12.70;93.30;;;;;;6156123;23;20008;-71
2023/04/23 04:00:42;;;;;;;9.73;7.60;;;12.70;93.20;;;;;;6155990;23;20001;-71
2023/04/23 04:03:08;;;;;;;9.80;7.43;;;12.70;93.20;;;;;;6156207;23;20033;-71
2023/04/23 04:05:34;;;;;;;8.10;7.03;;;12.70;93.10;;;;;;6156298;23;20005;-71
2023/04/23 04:08:00;;;;;;;13.32;8.10;;;12.70;93.20;;;;;;6156275;23;20002;-71
2023/04/23 04:10:27;;;;;;;9.90;7.68;;;12.70;93.20;;;;;;6156219;23;20009;-71
2023/04/23 04:12:54;;;;;;;13.95;7.53;;;12.60;93.20;;;;;;6155916;23;20017;-71
2023/04/23 04:15:20;;;;;;;8.70;7.80;;;12.60;93.30;;;;;;6156296;23;20104;-71
2023/04/23 04:17:46;;;;;;;9.48;7.20;;;12.60;93.50;;;;;;6156176;23;20451;-71
2023/04/23 04:20:12;;;;;;;7.85;7.00;;;12.60;93.50;;;;;;6155811;23;20005;-71
2023/04/23 04:22:38;;;;;;;9.85;7.63;;;12.60;93.60;;;;;;6129496;23;20009;-71
2023/04/23 04:25:04;;;;;;;8.27;7.10;;;12.60;93.40;;;;;;6156005;23;20084;-72
2023/04/23 04:27:33;;;;;;;12.48;8.10;;;12.60;93.60;;;;;;6155561;23;19997;-71
2023/04/23 04:30:00;;;;;;;11.05;7.60;;;12.60;93.70;;;;;;6155654;23;20008;-71
2023/04/23 04:32:26;;;;;;;11.70;8.45;;;12.60;93.80;;;;;;6155979;23;20025;-72
2023/04/23 04:34:53;;;;;;;13.75;9.65;;;12.60;93.90;;;;;;6155575;23;20088;-72
2023/04/23 04:37:20;;;;;;;12.10;9.45;;;12.60;93.60;;;;;;6155911;23;20364;-72
2023/04/23 04:39:46;;;;;;;13.18;9.57;;;12.60;93.50;;;;;;6155899;23;20446;-71
2023/04/23 04:42:12;;;;;;;14.15;9.68;;;12.60;93.40;;;;;;6155693;23;20006;-71
2023/04/23 04:44:38;;;;;;;14.80;9.73;;;12.70;93.50;;;;;;6155510;23;20094;-71
2023/04/23 04:47:06;;;;;;;15.95;11.27;;;12.70;93.70;;;;;;6155553;23;20002;-71
2023/04/23 04:49:32;;;;;;;18.65;12.93;;;12.70;93.80;;;;;;6155918;23;19997;-72
2023/04/23 04:51:58;;;;;;;18.95;13.18;;;12.80;93.50;;;;;;6155517;23;20028;-72
2023/04/23 04:54:24;;;;;;;21.98;13.93;;;12.80;93.40;;;;;;6155441;23;20336;-71
2023/04/23 04:56:49;;;;;;;18.83;14.20;;;12.90;93.50;;;;;;6155612;23;20033;-71
2023/04/23 04:59:15;;;;;;;23.48;14.77;;;12.80;93.40;;;;;;6155264;23;20384;-72
2023/04/23 05:01:41;;;;;;;23.40;15.73;;;12.90;93.50;;;;;;6155565;23;20028;-71
2023/04/23 05:04:07;;;;;;;24.58;15.98;;;12.90;93.40;;;;;;6155523;23;20064;-72
2023/04/23 05:06:33;;;;;;;33.42;20.08;;;13.00;93.20;;;;;;6155534;23;20022;-71
2023/04/23 05:08:59;;;;;;;26.90;19.02;;;13.10;93.00;;;;;;6155464;23;20029;-71
2023/04/23 05:11:24;;;;;;;25.38;18.23;;;13.10;93.20;;;;;;6155184;23;20013;-71
2023/04/23 05:13:50;;;;;;;26.65;18.70;;;13.20;92.90;;;;;;6155460;23;20028;-71
2023/04/23 05:16:16;;;;;;;32.13;18.73;;;13.20;93.10;;;;;;6155737;23;19998;-72
2023/04/23 05:18:41;;;;;;;25.33;17.45;;;13.20;93.40;;;;;;6155122;23;20073;-71
2023/04/23 05:21:07;;;;;;;23.38;16.35;;;13.20;93.30;;;;;;6153909;23;20064;-71
2023/04/23 05:23:35;;;;;;;25.02;16.45;;;13.20;93.00;;;;;;6155717;23;20008;-71
2023/04/23 05:26:02;;;;;;;22.02;16.63;;;13.20;93.30;;;;;;6155634;23;20136;-71
2023/04/23 05:28:28;;;;;;;25.38;14.63;;;13.20;93.40;;;;;;6155696;23;20018;-72
2023/04/23 05:30:55;;;;;;;23.00;14.88;;;13.20;93.40;;;;;;6155476;23;20028;-72
2023/04/23 05:33:20;;;;;;;20.05;13.75;;;13.20;93.50;;;;;;6154928;23;20018;-71
2023/04/23 05:35:46;;;;;;;19.48;13.30;;;13.30;93.50;;;;;;6155401;23;20106;-71
2023/04/23 05:38:12;;;;;;;17.58;13.52;;;13.30;93.70;;;;;;6155020;23;20029;-72
2023/04/23 05:40:38;;;;;;;20.60;13.50;;;13.30;94.00;;;;;;6155034;23;20012;-71
2023/04/23 05:43:05;;;;;;;19.20;13.05;;;13.30;94.20;;;;;;6155473;23;20088;-72
2023/04/23 05:45:30;;;;;;;17.88;12.23;;;13.40;94.40;;;;;;6154720;23;20009;-72
2023/04/23 05:47:56;;;;;;;16.17;11.95;;;13.40;94.30;;;;;;6153997;23;20006;-71
2023/04/23 05:50:22;;;;;;;13.95;10.45;;;13.40;94.30;;;;;;6154820;23;20021;-71
2023/04/23 05:52:48;;;;;;;11.20;9.13;;;13.40;94.30;;;;;;6155040;23;20076;-71
2023/04/23 05:55:14;;;;;;;10.23;8.50;;;13.50;93.90;;;;;;6154950;23;20028;-72
2023/04/23 05:57:40;;;;;;;10.88;8.23;;;13.60;93.80;;;;;;6154954;23;20006;-71
2023/04/23 06:00:10;;;;;;;10.63;8.80;;;13.60;93.20;;;;;;6155027;23;20036;-71
2023/04/23 06:02:37;;;;;;;10.90;8.23;;;13.70;92.90;;;;;;6155483;23;20032;-71
2023/04/23 06:05:03;;;;;;;9.60;8.10;;;13.70;93.10;;;;;;6155434;23;20002;-71
2023/04/23 06:07:29;;;;;;;11.45;7.95;;;13.80;92.80;;;;;;6154588;23;20384;-72
2023/04/23 06:09:55;;;;;;;10.88;8.15;;;13.80;92.70;;;;;;6155170;23;19998;-71
2023/04/23 06:12:21;;;;;;;11.35;8.80;;;13.80;92.60;;;;;;6155284;23;20064;-72
2023/04/23 06:14:47;;;;;;;11.68;8.30;;;13.90;92.70;;;;;;6155318;23;20014;-72
2023/04/23 06:17:12;;;;;;;9.38;8.00;;;13.80;92.70;;;;;;6155440;23;20002;-70
2023/04/23 06:19:38;;;;;;;9.73;7.82;;;13.80;93.20;;;;;;6155575;23;20005;-71
2023/04/23 06:22:04;;;;;;;10.27;8.55;;;13.80;93.40;;;;;;6155270;23;20301;-71
2023/04/23 06:24:30;;;;;;;10.00;8.45;;;13.80;93.40;;;;;;6155329;23;20146;-71
2023/04/23 06:26:56;;;;;;;11.68;8.80;;;13.80;93.70;;;;;;6154737;23;20008;-71
2023/04/23 06:29:22;;;;;;;19.05;9.23;;;13.80;93.80;;;;;;6155555;23;20016;-71
2023/04/23 06:31:48;;;;;;;13.90;8.50;;;13.90;93.90;;;;;;6155031;23;20006;-71
2023/04/23 06:34:14;;;;;;;19.13;8.98;;;13.90;93.90;;;;;;6154776;23;20019;-71
2023/04/23 06:36:39;;;;;;;12.45;8.40;;;14.00;93.90;;;;;;6155153;23;19998;-71
2023/04/23 06:39:05;;;;;;;13.98;8.35;;;14.00;93.80;;;;;;6154730;23;20005;-71
2023/04/23 06:41:31;;;;;;;11.63;8.30;;;14.10;93.80;;;;;;6154863;23;20059;-71
2023/04/23 06:43:56;;;;;;;16.55;9.20;;;14.10;93.40;;;;;;6155040;23;20005;-71
2023/04/23 06:46:22;;;;;;;11.52;8.07;;;14.20;93.40;;;;;;6154268;23;20005;-70
2023/04/23 06:48:48;;;;;;;12.13;7.85;;;14.30;93.20;;;;;;6154389;23;20016;-70
2023/04/23 06:51:14;;;;;;;10.75;8.20;;;14.40;93.20;;;;;;6153901;23;20018;-71
2023/04/23 06:53:40;;;;;;;13.23;8.95;;;14.50;93.30;;;;;;6152355;23;20010;-71
2023/04/23 06:56:06;;;;;;;11.48;8.70;;;14.50;93.30;;;;;;6154380;23;20033;-71
2023/04/23 06:58:32;;;;;;;12.57;9.43;;;14.60;92.90;;;;;;6154445;23;20031;-71
2023/04/23 07:01:04;;;;;;;13.60;7.68;;;14.70;92.70;;;;;;6154129;23;20017;-71
2023/04/23 07:03:30;;;;;;;14.02;7.95;;;14.80;92.70;;;;;;6154259;23;20010;-71
2023/04/23 07:05:56;;;;;;;10.63;7.55;;;14.80;92.80;;;;;;6153701;23;20305;-71
2023/04/23 07:08:22;;;;;;;11.20;8.52;;;14.90;92.70;;;;;;6156219;23;20005;-71
2023/04/23 07:10:48;;;;;;;12.57;8.45;;;14.90;92.70;;;;;;6156740;23;20001;-71
2023/04/23 07:13:14;;;;;;;14.77;8.32;;;15.00;92.70;;;;;;6156449;23;20033;-71
2023/04/23 07:15:41;;;;;;;9.95;8.32;;;15.00;92.80;;;;;;6156497;23;20005;-71
2023/04/23 07:18:07;;;;;;;8.65;6.90;;;15.00;92.70;;;;;;6156611;23;20033;-71
2023/04/23 07:20:33;;;;;;;9.07;7.60;;;15.10;92.60;;;;;;6156831;23;20006;-71
2023/04/23 07:22:59;;;;;;;9.48;6.93;;;15.10;92.30;;;;;;6156567;23;20059;-71
2023/04/23 07:25:25;;;;;;;8.45;7.38;;;15.10;92.20;;;;;;6156702;23;20065;-71
2023/04/23 07:27:52;;;;;;;11.20;7.80;;;15.10;92.20;;;;;;6156509;23;20040;-71
2023/04/23 07:30:19;;;;;;;9.13;7.32;;;15.10;92.20;;;;;;6156568;23;20077;-71
2023/04/23 07:32:45;;;;;;;8.55;7.57;;;15.10;92.00;;;;;;6156559;23;20036;-71
2023/04/23 07:35:11;;;;;;;9.60;7.65;;;15.20;91.90;;;;;;6156394;23;20010;-71
2023/04/23 07:37:37;;;;;;;13.25;7.80;;;15.20;91.80;;;;;;6156272;23;20051;-71
2023/04/23 07:40:04;;;;;;;8.50;6.85;;;15.20;91.70;;;;;;6156303;23;20002;-71
2023/04/23 07:42:30;;;;;;;11.00;7.22;;;15.30;91.60;;;;;;6156288;23;20424;-71
2023/04/23 07:44:56;;;;;;;8.60;6.70;;;15.30;91.50;;;;;;6156423;23;20056;-71
2023/04/23 07:47:22;;;;;;;11.73;7.70;;;15.40;91.50;;;;;;6156331;23;20005;-71
2023/04/23 07:49:48;;;;;;;10.95;7.45;;;15.50;91.30;;;;;;6156023;23;20498;-71
2023/04/23 07:52:15;;;;;;;8.65;7.03;;;15.50;91.20;;;;;;6155918;23;20072;-72
2023/04/23 07:54:41;;;;;;;12.48;7.43;;;15.50;91.10;;;;;;6156150;23;20017;-71
2023/04/23 07:57:06;;;;;;;10.52;7.72;;;15.60;91.00;;;;;;6155809;23;20442;-71
2023/04/23 07:59:32;;;;;;;8.30;7.30;;;15.70;91.30;;;;;;6129991;23;20020;-71
2023/04/23 08:01:58;;;;;;;9.95;7.47;;;15.70;91.30;;;;;;6156190;23;20001;-71
2023/04/23 08:04:24;;;;;;;10.98;7.55;;;15.70;91.40;;;;;;6156310;23;20005;-71
2023/04/23 08:06:50;;;;;;;10.43;7.25;;;15.80;91.40;;;;;;6156508;23;20044;-71
2023/04/23 08:09:15;;;;;;;8.35;7.03;;;15.80;91.40;;;;;;6155945;23;20069;-71
2023/04/23 08:11:41;;;;;;;10.00;6.82;;;15.90;91.30;;;;;;6156231;23;20010;-71
2023/04/23 08:14:07;;;;;;;9.25;7.50;;;15.90;91.20;;;;;;6155969;23;20029;-71
2023/04/23 08:16:33;;;;;;;8.75;7.50;;;16.00;91.40;;;;;;6156105;23;20060;-71
2023/04/23 08:18:58;;;;;;;8.80;7.00;;;16.10;91.20;;;;;;6155738;23;20052;-71
2023/04/23 08:21:25;;;;;;;10.80;6.35;;;16.10;91.00;;;;;;6156476;23;20017;-71
2023/04/23 08:23:52;;;;;;;7.25;6.25;;;16.20;90.90;;;;;;6155941;23;20324;-71
2023/04/23 08:26:17;;;;;;;10.60;7.05;;;16.30;90.70;;;;;;6156077;23;20032;-71
2023/04/23 08:28:45;;;;;;;8.85;6.90;;;16.30;90.50;;;;;;6156175;23;20020;-71
2023/04/23 08:31:11;;;;;;;10.80;6.30;;;16.40;90.50;;;;;;6155790;23;20008;-71
2023/04/23 08:33:37;;;;;;;6.65;5.50;;;16.50;90.60;;;;;;6153448;23;20634;-71
2023/04/23 08:36:02;;;;;;;7.57;5.68;;;16.60;90.00;;;;;;6152510;23;20008;-71
2023/04/23 08:38:28;;;;;;;12.68;5.78;;;16.60;89.30;;;;;;6154204;23;20005;-71
2023/04/23 08:40:56;;;;;;;6.18;5.00;;;16.70;89.10;;;;;;6156044;23;20006;-71
2023/04/23 08:43:30;;;;;;;7.63;5.70;;;16.80;88.60;;;;;;6155511;23;20081;-71
2023/04/23 08:46:03;;;;;;;9.70;5.57;;;16.80;88.90;;;;;;6155830;23;19997;-72
2023/04/23 08:48:29;;;;;;;10.13;5.75;;;16.90;89.10;;;;;;6155792;23;20432;-71
2023/04/23 08:50:56;;;;;;;7.53;5.65;;;17.00;88.40;;;;;;6155502;23;20368;-71
2023/04/23 08:53:28;;;;;;;8.70;5.47;;;17.00;87.90;;;;;;6155598;23;20016;-71
2023/04/23 08:55:55;;;;;;;6.10;5.00;;;17.10;87.50;;;;;;6155569;23;20332;-71
2023/04/23 08:58:22;;;;;;;11.73;5.25;;;17.10;87.70;;;;;;6153830;23;20013;-71
2023/04/23 09:00:49;;;;;;;5.50;4.43;;;17.20;86.20;;;;;;6152144;23;20454;-71
2023/04/23 09:03:19;;;;;;;6.07;4.22;;;17.30;85.00;;;;;;6152254;23;20002;-71
2023/04/23 09:05:46;;;;;;;6.25;3.60;;;17.30;82.30;;;;;;6154538;23;20499;-71
2023/04/23 09:08:11;;;;;;;7.55;3.47;;;17.40;81.70;;;;;;6155691;23;20013;-71
2023/04/23 09:10:41;;;;;;;6.22;3.95;;;17.40;79.30;;;;;;6155685;23;20005;-71
2023/04/23 09:13:07;;;;;;;7.25;3.53;;;17.40;78.60;;;;;;6154933;23;20412;-71
2023/04/23 09:15:37;;;;;;;4.10;3.28;;;17.40;78.90;;;;;;6155122;23;20494;-71
2023/04/23 09:18:03;;;;;;;5.13;3.45;;;17.40;79.40;;;;;;6129213;23;20009;-71
2023/04/23 09:20:29;;;;;;;4.35;3.17;;;17.40;79.70;;;;;;6155330;23;20443;-71
2023/04/23 09:22:55;;;;;;;4.28;3.17;;;17.40;78.40;;;;;;6155428;23;20084;-71
2023/04/23 09:25:22;;;;;;;4.05;3.22;;;17.50;78.20;;;;;;6155628;23;20372;-71
2023/04/23 09:27:52;;;;;;;5.75;3.53;;;17.50;79.00;;;;;;6155088;23;20028;-71
2023/04/23 09:30:18;;;;;;;5.45;3.25;;;17.60;79.30;;;;;;6155279;23;20428;-71
2023/04/23 09:32:45;;;;;;;5.45;3.75;;;17.70;78.80;;;;;;6155470;23;20005;-71
2023/04/23 09:35:14;;;;;;;4.82;3.60;;;17.70;77.30;;;;;;6154989;23;20088;-71
2023/04/23 09:37:47;;;;;;;4.47;3.45;;;17.80;76.70;;;;;;6155313;23;20005;-71
2023/04/23 09:40:17;;;;;;;6.13;3.95;;;17.90;77.10;;;;;;6155309;23;20037;-71
2023/04/23 09:42:48;;;;;;;4.57;3.67;;;17.90;77.20;;;;;;6155331;23;20004;-71
2023/04/23 09:45:14;;;;;;;4.83;3.33;;;17.90;77.00;;;;;;6155661;23;20005;-71
2023/04/23 09:47:54;;;;;;;4.65;3.25;;;18.00;77.70;;;;;;6155261;23;20683;-71
2023/04/23 09:50:40;;;;;;;5.40;3.60;;;18.00;77.80;;;;;;6155041;23;20009;-71
2023/04/23 09:53:07;;;;;;;5.20;3.50;;;18.10;76.30;;;;;;6154566;23;20009;-71
2023/04/23 09:55:39;;;;;;;8.55;3.40;;;18.20;76.60;;;;;;6129257;23;20013;-71
2023/04/23 09:58:09;;;;;;;4.68;3.78;;;18.20;76.50;;;;;;6155489;23;20025;-71
2023/04/23 10:00:37;;;;;;;6.22;3.78;;;18.20;76.60;;;;;;6155026;23;20029;-72
2023/04/23 10:03:05;;;;;;;4.25;3.40;;;18.30;75.40;;;;;;6155210;23;20389;-71
2023/04/23 10:05:31;;;;;;;6.15;3.50;;;18.30;76.50;;;;;;6155325;23;20006;-71
2023/04/23 10:07:57;;;;;;;6.72;3.60;;;18.40;76.60;;;;;;6155662;23;20013;-71
2023/04/23 10:10:24;;;;;;;6.15;3.03;;;18.40;76.40;;;;;;6155241;23;20117;-71
2023/04/23 10:12:55;;;;;;;6.05;3.60;;;18.40;76.30;;;;;;6155288;23;20365;-72
2023/04/23 10:15:24;;;;;;;5.70;3.50;;;18.50;76.90;;;;;;6155021;23;20009;-71
2023/04/23 10:17:51;;;;;;;6.93;3.60;;;18.50;77.60;;;;;;6155491;23;20084;-71
2023/04/23 10:20:16;;;;;;;4.05;3.30;;;18.60;75.70;;;;;;6155419;23;20487;-71
2023/04/23 10:22:44;;;;;;;4.00;2.97;;;18.60;75.00;;;;;;6155234;23;19997;-71
2023/04/23 10:25:11;;;;;;;3.83;2.50;;;18.60;74.60;;;;;;6155116;23;19998;-71
2023/04/23 10:27:39;;;;;;;3.78;2.42;;;18.60;71.50;;;;;;6152411;23;20437;-71
2023/04/23 10:30:07;;;;;;;3.33;2.47;;;18.70;69.20;;;;;;6152599;23;20020;-71
2023/04/23 10:32:33;;;;;;;3.38;2.50;;;18.80;70.90;;;;;;6154856;23;20335;-71
2023/04/23 10:34:59;;;;;;;2.53;2.33;;;18.80;68.50;;;;;;6154987;23;20432;-71
2023/04/23 10:37:25;;;;;;;5.75;2.13;;;18.80;68.80;;;;;;6154907;23;20324;-72
2023/04/23 10:39:54;;;;;;;4.75;2.10;;;18.80;67.70;;;;;;6154564;23;20332;-71
2023/04/23 10:42:21;;;;;;;4.35;2.20;;;18.90;67.90;;;;;;6156702;23;20302;-71
2023/04/23 10:44:47;;;;;;;4.68;2.58;;;18.90;68.40;;;;;;6157243;23;20005;-71
2023/04/23 10:47:14;;;;;;;5.40;2.67;;;18.90;67.00;;;;;;6156903;23;20024;-72
2023/04/23 10:49:41;;;;;;;3.38;2.42;;;18.90;66.00;;;;;;6156634;23;20001;-72
2023/04/23 10:52:13;;;;;;;4.78;2.72;;;18.80;66.10;;;;;;6153840;23;20032;-71
2023/04/23 10:54:46;;;;;;;3.08;2.47;;;18.70;65.30;;;;;;6153691;23;20463;-71
2023/04/23 10:57:12;;;;;;;5.55;2.60;;;18.70;65.90;;;;;;6154224;23;20451;-71
2023/04/23 10:59:40;;;;;;;5.20;3.35;;;18.70;65.40;;;;;;6156346;23;20008;-71
2023/04/23 11:02:11;;;;;;;4.63;2.47;;;18.70;65.30;;;;;;6156559;23;20002;-72
2023/04/23 11:04:53;;;;;;;4.03;2.83;;;18.70;65.40;;;;;;6156442;23;20010;-71
2023/04/23 11:07:19;;;;;;;3.70;2.50;;;18.70;64.60;;;;;;6156427;23;20014;-72
2023/04/23 11:09:46;;;;;;;4.53;2.67;;;18.70;64.80;;;;;;6156368;23;20001;-72
2023/04/23 11:12:25;;;;;;;5.40;2.70;;;18.80;67.00;;;;;;6156550;23;20338;-71
2023/04/23 11:14:53;;;;;;;4.97;2.47;;;18.80;64.30;;;;;;6156000;23;20024;-71
2023/04/23 11:17:43;;;;;;;3.83;2.72;;;18.90;65.70;;;;;;6156471;23;20025;-72
2023/04/23 11:20:15;;;;;;;3.58;2.70;;;19.00;66.00;;;;;;6130330;23;20020;-71
2023/04/23 11:22:45;;;;;;;3.72;3.10;;;19.10;65.50;;;;;;6156128;23;20084;-71
2023/04/23 11:25:15;;;;;;;4.80;2.63;;;19.20;66.00;;;;;;6156465;23;20010;-71
2023/04/23 11:27:42;;;;;;;5.63;2.75;;;19.20;64.80;;;;;;6156559;23;20002;-71
2023/04/23 11:30:13;;;;;;;6.25;2.70;;;19.30;64.40;;;;;;6156345;23;20076;-71
2023/04/23 11:32:40;;;;;;;3.67;2.70;;;19.30;64.30;;;;;;6156370;23;20044;-72
2023/04/23 11:35:08;;;;;;;5.25;2.85;;;19.30;64.80;;;;;;6156384;23;20010;-71
2023/04/23 11:37:39;;;;;;;3.42;2.53;;;19.30;65.60;;;;;;6156066;23;20006;-72
2023/04/23 11:40:08;;;;;;;4.28;3.10;;;19.30;66.40;;;;;;6156594;23;20002;-71
2023/04/23 11:42:49;;;;;;;4.95;3.30;;;19.30;65.30;;;;;;6156519;23;19998;-71
2023/04/23 11:45:20;;;;;;;4.03;3.13;;;19.30;65.50;;;;;;6130120;23;20010;-71
2023/04/23 11:47:47;;;;;;;5.38;3.33;;;19.40;65.50;;;;;;6156404;23;20125;-71
2023/04/23 11:50:23;;;;;;;7.35;3.00;;;19.40;64.80;;;;;;6156186;23;20428;-72
2023/04/23 11:52:49;;;;;;;5.93;2.60;;;19.40;65.30;;;;;;6155588;23;20005;-72
2023/04/23 11:55:15;;;;;;;2.63;2.20;;;19.40;64.80;;;;;;6156277;23;20041;-71
2023/04/23 11:57:43;;;;;;;3.40;2.70;;;19.40;65.00;;;;;;6156231;23;20005;-71
2023/04/23 12:00:18;;;;;;;3.13;2.35;;;19.50;65.00;;;;;;6156349;23;20013;-71
2023/04/23 12:02:54;;;;;;;2.78;2.20;;;19.50;64.50;;;;;;6156001;23;20016;-71
2023/04/23 12:05:22;;;;;;;3.83;2.25;;;19.60;64.20;;;;;;6156045;23;20059;-71
2023/04/23 12:07:50;;;;;;;5.18;3.08;;;19.60;64.80;;;;;;6155671;23;20006;-71
2023/04/23 12:10:18;;;;;;;3.05;2.53;;;19.70;63.80;;;;;;6155771;23;19998;-71
2023/04/23 12:12:43;;;;;;;5.93;2.30;;;19.70;64.80;;;;;;6156088;23;20008;-71
2023/04/23 12:15:09;;;;;;;4.22;2.53;;;19.80;65.60;;;;;;6155656;23;20009;-71
2023/04/23 12:17:35;;;;;;;3.13;2.40;;;19.80;64.70;;;;;;6156178;23;20005;-71
2023/04/23 12:20:06;;;;;;;6.00;2.63;;;19.90;64.30;;;;;;6156047;23;20006;-71
2023/04/23 12:22:31;;;;;;;2.53;2.33;;;20.00;62.90;;;;;;6155816;23;20002;-71
2023/04/23 12:24:59;;;;;;;3.38;2.10;;;20.00;63.90;;;;;;6155875;23;20314;-71
2023/04/23 12:27:25;;;;;;;3.30;2.08;;;20.10;62.80;;;;;;6156136;23;20012;-71
2023/04/23 12:30:00;;;;;;;4.22;2.53;;;20.30;61.90;;;;;;6155751;23;20447;-71
2023/04/23 12:32:26;;;;;;;3.38;2.13;;;20.40;61.70;;;;;;6129606;23;20040;-71
2023/04/23 12:34:55;;;;;;;4.60;2.30;;;20.50;59.10;;;;;;6155598;23;20041;-71
2023/04/23 12:37:28;;;;;;;3.20;2.28;;;20.60;60.00;;;;;;6155357;23;20080;-71
2023/04/23 12:39:55;;;;;;;2.50;2.30;;;20.70;61.20;;;;;;6155816;23;20008;-71